createdAt,value
2018-02-05T00:00:37.414Z,1008.08
2018-02-05T00:01:18.274Z,1008.12
2018-02-05T00:02:00.233Z,1008.17
2018-02-05T00:02:40.765Z,1008.13
2018-02-05T00:03:21.315Z,1008.13
2018-02-05T00:04:01.873Z,1008.16
2018-02-05T00:04:42.415Z,1008.22
2018-02-05T00:05:22.982Z,1008.19
2018-02-05T00:06:06.544Z,1008.21
2018-02-05T00:06:47.013Z,1008.17
2018-02-05T00:07:27.620Z,1008.22
2018-02-05T00:08:09.616Z,1008.25
2018-02-05T00:08:50.397Z,1008.21
2018-02-05T00:09:30.900Z,1008.21
2018-02-05T00:10:11.459Z,1008.19
2018-02-05T00:10:52.014Z,1008.24
2018-02-05T00:11:32.558Z,1008.18
2018-02-05T00:12:13.121Z,1008.17
2018-02-05T00:12:55.529Z,1008.15
2018-02-05T00:13:36.163Z,1008.21
2018-02-05T00:14:16.760Z,1008.17
2018-02-05T00:14:57.265Z,1008.2
2018-02-05T00:15:37.785Z,1008.18
2018-02-05T00:16:20.187Z,1008.15
2018-02-05T00:17:00.766Z,1008.21
2018-02-05T00:17:41.278Z,1008.14
2018-02-05T00:18:21.820Z,1008.19
2018-02-05T00:19:02.429Z,1008.16
2018-02-05T00:19:42.966Z,1008.2
2018-02-05T00:20:27.032Z,1008.24
2018-02-05T00:21:07.519Z,1008.22
2018-02-05T00:21:48.416Z,1008.22
2018-02-05T00:22:30.468Z,1008.24
2018-02-05T00:23:11.052Z,1008.23
2018-02-05T00:23:51.569Z,1008.26
2018-02-05T00:24:32.141Z,1008.34
2018-02-05T00:25:12.639Z,1008.3
2018-02-05T00:25:53.177Z,1008.31
2018-02-05T00:26:34.495Z,1008.29
2018-02-05T00:27:15.993Z,1008.21
2018-02-05T00:27:57.407Z,1008.25
2018-02-05T00:28:38.000Z,1008.21
2018-02-05T00:29:20.590Z,1008.24
2018-02-05T00:30:01.100Z,1008.22
2018-02-05T00:30:41.723Z,1008.25
2018-02-05T00:31:22.261Z,1008.23
2018-02-05T00:32:02.862Z,1008.2
2018-02-05T00:32:43.346Z,1008.24
2018-02-05T00:33:27.052Z,1008.25
2018-02-05T00:34:10.410Z,1008.2
2018-02-05T00:34:51.664Z,1008.22
2018-02-05T00:35:31.659Z,1008.21
2018-02-05T00:36:12.234Z,1008.27
2018-02-05T00:36:52.795Z,1008.2
2018-02-05T00:37:33.373Z,1008.25
2018-02-05T00:38:15.236Z,1008.29
2018-02-05T00:38:55.849Z,1008.25
2018-02-05T00:39:36.492Z,1008.23
2018-02-05T00:40:16.881Z,1008.25
2018-02-05T00:40:57.489Z,1008.22
2018-02-05T00:41:38.065Z,1008.26
2018-02-05T00:42:20.072Z,1008.21
2018-02-05T00:43:00.637Z,1008.21
2018-02-05T00:43:41.172Z,1008.22
2018-02-05T00:44:21.699Z,1008.21
2018-02-05T00:45:02.308Z,1008.19
2018-02-05T00:45:43.528Z,1008.2
2018-02-05T00:46:25.503Z,1008.2
2018-02-05T00:47:06.061Z,1008.22
2018-02-05T00:47:46.842Z,1008.22
2018-02-05T00:48:27.409Z,1008.22
2018-02-05T00:49:07.975Z,1008.13
2018-02-05T00:49:51.242Z,1008.24
2018-02-05T00:50:31.835Z,1008.21
2018-02-05T00:51:12.354Z,1008.16
2018-02-05T00:51:52.990Z,1008.22
2018-02-05T00:52:33.504Z,1008.15
2018-02-05T00:53:18.224Z,1008.19
2018-02-05T00:54:00.334Z,1008.22
2018-02-05T00:54:40.935Z,1008.17
2018-02-05T00:55:21.512Z,1008.23
2018-02-05T00:56:02.164Z,1008.3
2018-02-05T00:56:42.715Z,1008.25
2018-02-05T00:57:23.260Z,1008.27
2018-02-05T00:58:05.685Z,1008.27
2018-02-05T00:58:46.269Z,1008.27
2018-02-05T00:59:26.788Z,1008.28
2018-02-05T01:00:07.320Z,1008.24
2018-02-05T01:00:47.851Z,1008.3
2018-02-05T01:01:30.102Z,1008.28
2018-02-05T01:02:10.621Z,1008.3
2018-02-05T01:02:51.238Z,1008.31
2018-02-05T01:03:31.843Z,1008.31
2018-02-05T01:04:12.686Z,1008.29
2018-02-05T01:06:32.074Z,1008.29
2018-02-05T01:07:15.329Z,1008.3
2018-02-05T01:09:21.468Z,1008.35
2018-02-05T01:10:01.978Z,1008.26
2018-02-05T01:10:42.501Z,1008.28
2018-02-05T01:11:23.005Z,1008.32
2018-02-05T01:12:03.939Z,1008.31
2018-02-05T01:12:45.356Z,1008.39
2018-02-05T01:13:25.886Z,1008.41
2018-02-05T01:14:06.384Z,1008.41
2018-02-05T01:14:46.909Z,1008.34
2018-02-05T01:15:27.441Z,1008.33
2018-02-05T01:16:07.972Z,1008.34
2018-02-05T01:16:49.092Z,1008.38
2018-02-05T01:17:31.727Z,1008.36
2018-02-05T01:18:12.402Z,1008.36
2018-02-05T01:18:52.761Z,1008.36
2018-02-05T01:19:33.280Z,1008.37
2018-02-05T01:21:54.333Z,1008.41
2018-02-05T01:22:34.819Z,1008.38
2018-02-05T01:23:15.349Z,1008.35
2018-02-05T01:23:55.914Z,1008.36
2018-02-05T01:24:36.470Z,1008.38
2018-02-05T01:25:16.980Z,1008.36
2018-02-05T01:25:57.472Z,1008.36
2018-02-05T01:26:38.018Z,1008.34
2018-02-05T01:27:18.599Z,1008.4
2018-02-05T01:27:59.130Z,1008.41
2018-02-05T01:28:39.678Z,1008.34
2018-02-05T01:29:20.194Z,1008.38
2018-02-05T01:30:00.749Z,1008.36
2018-02-05T01:30:41.245Z,1008.37
2018-02-05T01:31:21.824Z,1008.38
2018-02-05T01:32:02.426Z,1008.33
2018-02-05T01:32:42.974Z,1008.35
2018-02-05T01:33:23.529Z,1008.37
2018-02-05T01:34:04.107Z,1008.4
2018-02-05T01:34:44.639Z,1008.42
2018-02-05T01:35:25.197Z,1008.45
2018-02-05T01:36:05.770Z,1008.48
2018-02-05T01:36:46.375Z,1008.49
2018-02-05T01:37:27.272Z,1008.46
2018-02-05T01:38:07.835Z,1008.5
2018-02-05T01:38:48.335Z,1008.51
2018-02-05T01:39:28.858Z,1008.51
2018-02-05T01:40:09.487Z,1008.53
2018-02-05T01:40:49.973Z,1008.55
2018-02-05T01:41:30.519Z,1008.51
2018-02-05T01:42:11.073Z,1008.52
2018-02-05T01:42:51.596Z,1008.54
2018-02-05T01:43:32.097Z,1008.52
2018-02-05T01:44:12.670Z,1008.49
2018-02-05T01:44:53.250Z,1008.51
2018-02-05T01:45:33.817Z,1008.53
2018-02-05T01:46:14.314Z,1008.54
2018-02-05T01:46:54.893Z,1008.49
2018-02-05T01:47:35.401Z,1008.5
2018-02-05T01:48:15.993Z,1008.48
2018-02-05T01:48:56.565Z,1008.53
2018-02-05T01:49:37.082Z,1008.48
2018-02-05T01:50:17.573Z,1008.54
2018-02-05T01:50:58.129Z,1008.5
2018-02-05T01:51:38.640Z,1008.49
2018-02-05T01:52:19.167Z,1008.49
2018-02-05T01:52:59.696Z,1008.48
2018-02-05T01:53:40.232Z,1008.52
2018-02-05T01:54:20.763Z,1008.5
2018-02-05T01:55:01.274Z,1008.5
2018-02-05T01:55:41.805Z,1008.47
2018-02-05T01:56:22.350Z,1008.47
2018-02-05T01:57:02.886Z,1008.46
2018-02-05T01:57:43.467Z,1008.45
2018-02-05T01:58:23.988Z,1008.52
2018-02-05T01:59:04.518Z,1008.4
2018-02-05T01:59:45.028Z,1008.47
2018-02-05T02:00:25.615Z,1008.42
2018-02-05T02:01:06.121Z,1008.47
2018-02-05T02:01:46.665Z,1008.46
2018-02-05T02:02:27.166Z,1008.54
2018-02-05T02:03:07.750Z,1008.5
2018-02-05T02:03:48.259Z,1008.43
2018-02-05T02:04:28.880Z,1008.47
2018-02-05T02:05:09.373Z,1008.45
2018-02-05T02:05:49.928Z,1008.46
2018-02-05T02:06:30.514Z,1008.43
2018-02-05T02:07:11.314Z,1008.44
2018-02-05T02:07:51.882Z,1008.45
2018-02-05T02:08:32.459Z,1008.44
2018-02-05T02:09:12.975Z,1008.46
2018-02-05T02:09:53.502Z,1008.43
2018-02-05T02:10:34.085Z,1008.44
2018-02-05T02:11:14.644Z,1008.44
2018-02-05T02:11:55.181Z,1008.47
2018-02-05T02:12:35.783Z,1008.52
2018-02-05T02:13:16.345Z,1008.46
2018-02-05T02:13:56.848Z,1008.48
2018-02-05T02:14:37.387Z,1008.53
2018-02-05T02:15:17.922Z,1008.53
2018-02-05T02:15:58.485Z,1008.48
2018-02-05T02:16:39.113Z,1008.46
2018-02-05T02:17:19.746Z,1008.48
2018-02-05T02:18:00.256Z,1008.52
2018-02-05T02:18:40.791Z,1008.52
2018-02-05T02:19:21.376Z,1008.49
2018-02-05T02:20:01.854Z,1008.48
2018-02-05T02:20:42.402Z,1008.49
2018-02-05T02:21:22.880Z,1008.53
2018-02-05T02:22:03.447Z,1008.52
2018-02-05T02:22:43.930Z,1008.54
2018-02-05T02:23:24.483Z,1008.55
2018-02-05T02:24:04.999Z,1008.57
2018-02-05T02:24:45.542Z,1008.54
2018-02-05T02:25:26.074Z,1008.56
2018-02-05T02:26:06.629Z,1008.56
2018-02-05T02:26:47.190Z,1008.57
2018-02-05T02:27:27.716Z,1008.58
2018-02-05T02:28:08.231Z,1008.6
2018-02-05T02:28:48.751Z,1008.56
2018-02-05T02:29:29.300Z,1008.6
2018-02-05T02:30:09.883Z,1008.58
2018-02-05T02:30:50.404Z,1008.58
2018-02-05T02:31:30.982Z,1008.63
2018-02-05T02:32:11.757Z,1008.63
2018-02-05T02:32:52.261Z,1008.56
2018-02-05T02:33:32.813Z,1008.62
2018-02-05T02:34:13.309Z,1008.63
2018-02-05T02:34:53.878Z,1008.63
2018-02-05T02:35:34.409Z,1008.6
2018-02-05T02:36:14.957Z,1008.62
2018-02-05T02:36:55.498Z,1008.62
2018-02-05T02:37:36.071Z,1008.6
2018-02-05T02:38:16.560Z,1008.57
2018-02-05T02:38:57.082Z,1008.55
2018-02-05T02:39:37.662Z,1008.54
2018-02-05T02:40:18.231Z,1008.62
2018-02-05T02:40:58.763Z,1008.49
2018-02-05T02:41:39.311Z,1008.56
2018-02-05T02:42:20.870Z,1008.57
2018-02-05T02:43:02.066Z,1008.6
2018-02-05T02:43:42.576Z,1008.61
2018-02-05T02:44:23.165Z,1008.59
2018-02-05T02:45:03.669Z,1008.56
2018-02-05T02:45:44.219Z,1008.53
2018-02-05T02:46:24.767Z,1008.54
2018-02-05T02:47:05.268Z,1008.58
2018-02-05T02:47:45.800Z,1008.64
2018-02-05T02:48:26.373Z,1008.62
2018-02-05T02:49:07.078Z,1008.59
2018-02-05T02:49:47.633Z,1008.59
2018-02-05T02:50:28.241Z,1008.59
2018-02-05T02:51:08.747Z,1008.62
2018-02-05T02:51:49.278Z,1008.62
2018-02-05T02:52:29.835Z,1008.61
2018-02-05T02:53:10.354Z,1008.65
2018-02-05T02:53:52.603Z,1008.65
2018-02-05T02:54:33.197Z,1008.64
2018-02-05T02:55:13.771Z,1008.64
2018-02-05T02:55:54.443Z,1008.62
2018-02-05T02:56:34.845Z,1008.63
2018-02-05T02:57:15.986Z,1008.65
2018-02-05T02:57:58.057Z,1008.67
2018-02-05T02:58:40.242Z,1008.65
2018-02-05T02:59:20.776Z,1008.64
2018-02-05T03:00:01.319Z,1008.64
2018-02-05T03:00:42.648Z,1008.65
2018-02-05T03:01:23.169Z,1008.65
2018-02-05T03:02:03.755Z,1008.69
2018-02-05T03:02:44.280Z,1008.69
2018-02-05T03:03:24.860Z,1008.65
2018-02-05T03:04:05.347Z,1008.69
2018-02-05T03:04:45.994Z,1008.67
2018-02-05T03:05:26.528Z,1008.62
2018-02-05T03:06:07.056Z,1008.66
2018-02-05T03:06:47.641Z,1008.65
2018-02-05T03:07:28.119Z,1008.69
2018-02-05T03:08:08.638Z,1008.63
2018-02-05T03:08:49.186Z,1008.62
2018-02-05T03:09:29.698Z,1008.67
2018-02-05T03:10:10.261Z,1008.73
2018-02-05T03:10:50.795Z,1008.61
2018-02-05T03:11:31.303Z,1008.68
2018-02-05T03:12:11.868Z,1008.67
2018-02-05T03:12:52.437Z,1008.77
2018-02-05T03:13:32.902Z,1008.69
2018-02-05T03:14:13.521Z,1008.74
2018-02-05T03:14:54.107Z,1008.65
2018-02-05T03:15:34.583Z,1008.69
2018-02-05T03:16:15.069Z,1008.69
2018-02-05T03:16:55.604Z,1008.66
2018-02-05T03:17:36.184Z,1008.64
2018-02-05T03:18:16.958Z,1008.66
2018-02-05T03:18:57.550Z,1008.67
2018-02-05T03:19:38.050Z,1008.75
2018-02-05T03:20:18.599Z,1008.73
2018-02-05T03:20:59.103Z,1008.68
2018-02-05T03:21:39.674Z,1008.74
2018-02-05T03:22:20.194Z,1008.71
2018-02-05T03:23:00.732Z,1008.72
2018-02-05T03:23:41.324Z,1008.73
2018-02-05T03:24:21.858Z,1008.81
2018-02-05T03:25:02.423Z,1008.76
2018-02-05T03:25:42.953Z,1008.82
2018-02-05T03:26:23.533Z,1008.74
2018-02-05T03:27:04.055Z,1008.75
2018-02-05T03:27:44.627Z,1008.78
2018-02-05T03:28:25.143Z,1008.85
2018-02-05T03:29:05.690Z,1008.77
2018-02-05T03:29:46.270Z,1008.79
2018-02-05T03:30:26.798Z,1008.75
2018-02-05T03:31:07.361Z,1008.85
2018-02-05T03:31:48.130Z,1008.91
2018-02-05T03:32:28.654Z,1008.81
2018-02-05T03:33:09.247Z,1008.77
2018-02-05T03:33:51.483Z,1008.9
2018-02-05T03:34:32.020Z,1008.85
2018-02-05T03:35:12.537Z,1008.79
2018-02-05T03:35:53.098Z,1008.78
2018-02-05T03:36:33.704Z,1008.75
2018-02-05T03:37:14.299Z,1008.82
2018-02-05T03:37:54.787Z,1008.81
2018-02-05T03:38:35.305Z,1008.83
2018-02-05T03:39:15.916Z,1008.77
2018-02-05T03:39:56.412Z,1008.74
2018-02-05T03:40:38.061Z,1008.8
2018-02-05T03:41:19.093Z,1008.74
2018-02-05T03:42:00.114Z,1008.79
2018-02-05T03:42:40.631Z,1008.83
2018-02-05T03:43:22.030Z,1008.78
2018-02-05T03:44:03.462Z,1008.75
2018-02-05T03:44:44.000Z,1008.82
2018-02-05T03:45:24.511Z,1008.82
2018-02-05T03:46:05.190Z,1008.75
2018-02-05T03:46:45.721Z,1008.85
2018-02-05T03:47:26.245Z,1008.83
2018-02-05T03:48:06.959Z,1008.87
2018-02-05T03:48:47.439Z,1008.84
2018-02-05T03:49:28.039Z,1008.8
2018-02-05T03:50:08.578Z,1008.85
2018-02-05T03:50:50.724Z,1008.88
2018-02-05T03:51:30.292Z,1008.86
2018-02-05T03:52:10.893Z,1008.94
2018-02-05T03:52:51.393Z,1008.87
2018-02-05T03:53:31.952Z,1008.9
2018-02-05T03:54:12.469Z,1008.96
2018-02-05T03:54:53.063Z,1008.92
2018-02-05T03:55:33.534Z,1009.06
2018-02-05T03:56:14.100Z,1008.92
2018-02-05T03:56:54.642Z,1008.96
2018-02-05T03:57:35.191Z,1008.9
2018-02-05T03:58:15.747Z,1008.95
2018-02-05T03:58:56.287Z,1008.91
2018-02-05T03:59:36.810Z,1008.9
2018-02-05T04:00:17.437Z,1008.94
2018-02-05T04:00:57.997Z,1008.92
2018-02-05T04:01:38.538Z,1008.86
2018-02-05T04:02:19.051Z,1008.9
2018-02-05T04:02:59.614Z,1008.93
2018-02-05T04:03:40.156Z,1008.87
2018-02-05T04:04:20.696Z,1008.86
2018-02-05T04:05:01.157Z,1008.87
2018-02-05T04:05:41.715Z,1008.87
2018-02-05T04:06:22.292Z,1008.86
2018-02-05T04:07:02.800Z,1008.91
2018-02-05T04:07:43.332Z,1008.82
2018-02-05T04:08:23.878Z,1008.88
2018-02-05T04:09:04.442Z,1008.83
2018-02-05T04:09:44.992Z,1008.88
2018-02-05T04:10:25.558Z,1008.81
2018-02-05T04:11:06.093Z,1008.87
2018-02-05T04:11:46.654Z,1008.79
2018-02-05T04:12:27.188Z,1008.82
2018-02-05T04:13:07.731Z,1008.85
2018-02-05T04:13:48.285Z,1008.85
2018-02-05T04:14:28.769Z,1008.84
2018-02-05T04:15:09.387Z,1008.86
2018-02-05T04:15:49.863Z,1008.82
2018-02-05T04:16:30.415Z,1008.88
2018-02-05T04:17:10.984Z,1008.94
2018-02-05T04:17:51.528Z,1008.89
2018-02-05T04:18:32.025Z,1008.88
2018-02-05T04:19:12.567Z,1008.86
2018-02-05T04:19:53.143Z,1008.93
2018-02-05T04:20:33.706Z,1008.85
2018-02-05T04:21:14.369Z,1008.88
2018-02-05T04:21:54.804Z,1008.82
2018-02-05T04:22:35.321Z,1008.94
2018-02-05T04:23:15.893Z,1008.84
2018-02-05T04:23:56.407Z,1008.89
2018-02-05T04:24:36.943Z,1008.89
2018-02-05T04:25:17.508Z,1008.88
2018-02-05T04:25:58.080Z,1008.88
2018-02-05T04:26:38.613Z,1008.9
2018-02-05T04:27:19.102Z,1008.88
2018-02-05T04:27:59.775Z,1008.81
2018-02-05T04:28:40.222Z,1008.85
2018-02-05T04:29:20.725Z,1008.82
2018-02-05T04:30:01.431Z,1008.82
2018-02-05T04:30:42.016Z,1008.78
2018-02-05T04:31:22.548Z,1008.84
2018-02-05T04:32:03.089Z,1008.87
2018-02-05T04:32:43.601Z,1008.77
2018-02-05T04:33:24.155Z,1008.83
2018-02-05T04:34:04.714Z,1008.88
2018-02-05T04:34:45.248Z,1008.9
2018-02-05T04:35:25.782Z,1008.92
2018-02-05T04:36:06.337Z,1008.89
2018-02-05T04:36:46.830Z,1008.9
2018-02-05T04:37:27.396Z,1008.95
2018-02-05T04:38:07.916Z,1008.9
2018-02-05T04:38:48.458Z,1008.89
2018-02-05T04:39:29.319Z,1008.93
2018-02-05T04:40:09.874Z,1008.95
2018-02-05T04:40:50.401Z,1008.96
2018-02-05T04:41:30.953Z,1008.92
2018-02-05T04:42:11.490Z,1008.92
2018-02-05T04:42:52.049Z,1008.99
2018-02-05T04:43:32.616Z,1008.97
2018-02-05T04:44:13.144Z,1008.99
2018-02-05T04:44:53.738Z,1009.01
2018-02-05T04:45:34.244Z,1008.94
2018-02-05T04:46:14.805Z,1009
2018-02-05T04:46:55.510Z,1008.97
2018-02-05T04:47:36.122Z,1008.94
2018-02-05T04:48:16.631Z,1008.95
2018-02-05T04:48:57.175Z,1008.98
2018-02-05T04:49:37.700Z,1009.04
2018-02-05T04:50:18.251Z,1008.96
2018-02-05T04:50:58.795Z,1009.02
2018-02-05T04:51:39.315Z,1008.97
2018-02-05T04:52:19.878Z,1009.01
2018-02-05T04:53:00.450Z,1008.99
2018-02-05T04:53:41.033Z,1009
2018-02-05T04:54:21.560Z,1009.01
2018-02-05T04:55:02.125Z,1009.02
2018-02-05T04:55:42.643Z,1008.98
2018-02-05T04:56:23.195Z,1008.89
2018-02-05T04:57:03.772Z,1008.98
2018-02-05T04:57:44.340Z,1008.93
2018-02-05T04:58:24.861Z,1009.02
2018-02-05T04:59:05.366Z,1008.93
2018-02-05T04:59:45.924Z,1009.02
2018-02-05T05:00:26.448Z,1008.94
2018-02-05T05:01:06.952Z,1008.95
2018-02-05T05:01:47.449Z,1008.95
2018-02-05T05:02:28.015Z,1008.97
2018-02-05T05:03:08.565Z,1008.94
2018-02-05T05:03:49.126Z,1008.98
2018-02-05T05:04:29.612Z,1008.99
2018-02-05T05:05:10.180Z,1008.96
2018-02-05T05:05:50.716Z,1008.95
2018-02-05T05:06:31.223Z,1008.94
2018-02-05T05:07:11.747Z,1008.92
2018-02-05T05:07:52.301Z,1008.96
2018-02-05T05:08:32.811Z,1009
2018-02-05T05:09:13.359Z,1008.97
2018-02-05T05:09:53.906Z,1008.94
2018-02-05T05:10:34.412Z,1008.98
2018-02-05T05:11:14.926Z,1008.97
2018-02-05T05:11:55.567Z,1008.97
2018-02-05T05:12:36.020Z,1008.9
2018-02-05T05:13:16.605Z,1008.94
2018-02-05T05:13:57.171Z,1008.99
2018-02-05T05:14:37.695Z,1008.89
2018-02-05T05:15:18.296Z,1008.94
2018-02-05T05:15:58.777Z,1008.87
2018-02-05T05:16:39.329Z,1008.92
2018-02-05T05:17:19.944Z,1008.92
2018-02-05T05:18:00.537Z,1008.85
2018-02-05T05:18:41.119Z,1008.87
2018-02-05T05:19:21.590Z,1008.95
2018-02-05T05:20:02.122Z,1008.93
2018-02-05T05:20:42.714Z,1008.99
2018-02-05T05:21:23.191Z,1008.91
2018-02-05T05:22:03.767Z,1008.92
2018-02-05T05:22:44.612Z,1008.86
2018-02-05T05:23:25.147Z,1008.85
2018-02-05T05:24:05.760Z,1008.84
2018-02-05T05:24:46.238Z,1008.88
2018-02-05T05:25:26.786Z,1008.85
2018-02-05T05:26:07.364Z,1008.91
2018-02-05T05:26:47.849Z,1008.89
2018-02-05T05:27:28.407Z,1008.92
2018-02-05T05:28:08.929Z,1008.91
2018-02-05T05:28:49.508Z,1008.87
2018-02-05T05:29:30.017Z,1008.89
2018-02-05T05:30:10.553Z,1008.83
2018-02-05T05:30:51.094Z,1008.88
2018-02-05T05:31:31.651Z,1008.88
2018-02-05T05:32:12.194Z,1008.89
2018-02-05T05:32:52.829Z,1008.88
2018-02-05T05:33:33.402Z,1008.87
2018-02-05T05:34:14.057Z,1008.83
2018-02-05T05:34:54.597Z,1008.85
2018-02-05T05:35:35.136Z,1008.88
2018-02-05T05:36:15.675Z,1008.89
2018-02-05T05:36:56.186Z,1008.89
2018-02-05T05:37:36.733Z,1008.9
2018-02-05T05:38:17.266Z,1008.86
2018-02-05T05:38:57.813Z,1008.8
2018-02-05T05:39:38.471Z,1008.82
2018-02-05T05:40:19.062Z,1008.91
2018-02-05T05:40:59.552Z,1008.87
2018-02-05T05:41:40.133Z,1008.8
2018-02-05T05:42:20.681Z,1008.9
2018-02-05T05:43:01.235Z,1008.9
2018-02-05T05:43:41.776Z,1008.92
2018-02-05T05:44:22.333Z,1008.93
2018-02-05T05:45:02.960Z,1008.88
2018-02-05T05:45:43.503Z,1008.92
2018-02-05T05:46:24.089Z,1008.87
2018-02-05T05:47:04.699Z,1008.97
2018-02-05T05:47:45.224Z,1008.93
2018-02-05T05:48:25.774Z,1008.91
2018-02-05T05:49:06.325Z,1008.92
2018-02-05T05:49:46.865Z,1008.87
2018-02-05T05:50:27.452Z,1008.86
2018-02-05T05:51:07.978Z,1008.9
2018-02-05T05:51:48.501Z,1008.91
2018-02-05T05:52:29.080Z,1008.93
2018-02-05T05:53:09.560Z,1009.05
2018-02-05T05:53:50.096Z,1008.97
2018-02-05T05:54:30.663Z,1008.95
2018-02-05T05:55:11.190Z,1008.94
2018-02-05T05:55:51.738Z,1008.91
2018-02-05T05:56:32.221Z,1008.9
2018-02-05T05:57:12.731Z,1008.91
2018-02-05T05:57:53.273Z,1009
2018-02-05T05:58:33.827Z,1008.91
2018-02-05T05:59:14.413Z,1008.93
2018-02-05T05:59:54.977Z,1008.92
2018-02-05T06:00:35.508Z,1009.01
2018-02-05T06:01:16.054Z,1008.98
2018-02-05T06:01:56.562Z,1009.02
2018-02-05T06:02:37.122Z,1009.01
2018-02-05T06:03:17.680Z,1008.99
2018-02-05T06:03:58.185Z,1009.01
2018-02-05T06:04:38.680Z,1008.95
2018-02-05T06:05:19.236Z,1008.98
2018-02-05T06:05:59.846Z,1008.95
2018-02-05T06:06:40.530Z,1008.92
2018-02-05T06:07:21.065Z,1008.95
2018-02-05T06:08:01.640Z,1008.98
2018-02-05T06:08:42.143Z,1008.98
2018-02-05T06:09:22.793Z,1009
2018-02-05T06:10:03.315Z,1009.04
2018-02-05T06:10:43.787Z,1009.06
2018-02-05T06:11:25.006Z,1009.02
2018-02-05T06:12:05.533Z,1008.98
2018-02-05T06:12:46.054Z,1009.05
2018-02-05T06:13:26.570Z,1009.08
2018-02-05T06:14:07.070Z,1009.06
2018-02-05T06:14:47.603Z,1009.1
2018-02-05T06:15:28.225Z,1009.1
2018-02-05T06:16:08.825Z,1009.05
2018-02-05T06:16:49.482Z,1009.05
2018-02-05T06:17:31.241Z,1009.08
2018-02-05T06:18:11.906Z,1009.1
2018-02-05T06:18:52.378Z,1009.07
2018-02-05T06:19:32.908Z,1009.11
2018-02-05T06:20:13.446Z,1009.05
2018-02-05T06:20:53.981Z,1009.12
2018-02-05T06:21:34.698Z,1009.03
2018-02-05T06:22:15.275Z,1009.11
2018-02-05T06:22:55.813Z,1009.09
2018-02-05T06:23:36.382Z,1009.07
2018-02-05T06:24:16.910Z,1009.02
2018-02-05T06:24:57.382Z,1009.06
2018-02-05T06:25:37.937Z,1009.13
2018-02-05T06:26:18.491Z,1009.11
2018-02-05T06:26:59.210Z,1009.08
2018-02-05T06:27:39.715Z,1009.02
2018-02-05T06:28:20.325Z,1009.06
2018-02-05T06:29:00.854Z,1009.07
2018-02-05T06:29:41.433Z,1009.04
2018-02-05T06:30:22.027Z,1009.08
2018-02-05T06:31:02.505Z,1009.12
2018-02-05T06:31:43.055Z,1009.17
2018-02-05T06:32:23.594Z,1009.11
2018-02-05T06:33:04.144Z,1009.17
2018-02-05T06:33:44.711Z,1009.15
2018-02-05T06:34:25.271Z,1009.19
2018-02-05T06:35:05.868Z,1009.19
2018-02-05T06:35:46.423Z,1009.23
2018-02-05T06:36:26.985Z,1009.26
2018-02-05T06:37:07.683Z,1009.21
2018-02-05T06:37:48.292Z,1009.19
2018-02-05T06:38:28.899Z,1009.17
2018-02-05T06:39:09.607Z,1009.15
2018-02-05T06:39:50.157Z,1009.2
2018-02-05T06:40:30.705Z,1009.25
2018-02-05T06:41:11.303Z,1009.2
2018-02-05T06:41:51.770Z,1009.31
2018-02-05T06:42:32.322Z,1009.28
2018-02-05T06:43:12.859Z,1009.25
2018-02-05T06:43:53.378Z,1009.23
2018-02-05T06:44:33.966Z,1009.37
2018-02-05T06:45:14.531Z,1009.31
2018-02-05T06:45:55.080Z,1009.27
2018-02-05T06:46:35.646Z,1009.34
2018-02-05T06:47:16.168Z,1009.28
2018-02-05T06:47:56.735Z,1009.33
2018-02-05T06:48:37.282Z,1009.29
2018-02-05T06:49:17.835Z,1009.31
2018-02-05T06:49:58.516Z,1009.29
2018-02-05T06:50:39.017Z,1009.44
2018-02-05T06:51:19.545Z,1009.36
2018-02-05T06:52:00.506Z,1009.32
2018-02-05T06:52:41.176Z,1009.38
2018-02-05T06:53:21.791Z,1009.3
2018-02-05T06:54:02.345Z,1009.28
2018-02-05T06:54:42.917Z,1009.27
2018-02-05T06:55:23.437Z,1009.27
2018-02-05T06:56:03.972Z,1009.26
2018-02-05T06:56:45.245Z,1009.26
2018-02-05T06:57:25.729Z,1009.3
2018-02-05T06:58:06.292Z,1009.29
2018-02-05T06:58:47.066Z,1009.24
2018-02-05T06:59:27.639Z,1009.31
2018-02-05T07:00:08.271Z,1009.24
2018-02-05T07:00:48.742Z,1009.24
2018-02-05T07:01:29.456Z,1009.21
2018-02-05T07:02:10.134Z,1009.22
2018-02-05T07:02:51.641Z,1009.36
2018-02-05T07:03:32.247Z,1009.25
2018-02-05T07:04:12.786Z,1009.19
2018-02-05T07:04:53.269Z,1009.24
2018-02-05T07:05:33.790Z,1009.27
2018-02-05T07:06:14.597Z,1009.27
2018-02-05T07:06:55.157Z,1009.27
2018-02-05T07:07:35.649Z,1009.3
2018-02-05T07:08:16.354Z,1009.28
2018-02-05T07:08:57.138Z,1009.32
2018-02-05T07:09:37.488Z,1009.27
2018-02-05T07:10:18.023Z,1009.32
2018-02-05T07:10:58.642Z,1009.37
2018-02-05T07:11:39.324Z,1009.29
2018-02-05T07:12:20.056Z,1009.27
2018-02-05T07:13:00.582Z,1009.29
2018-02-05T07:13:41.189Z,1009.3
2018-02-05T07:14:22.462Z,1009.29
2018-02-05T07:15:03.043Z,1009.35
2018-02-05T07:15:43.634Z,1009.29
2018-02-05T07:16:24.138Z,1009.29
2018-02-05T07:17:04.856Z,1009.34
2018-02-05T07:17:46.249Z,1009.33
2018-02-05T07:18:26.845Z,1009.34
2018-02-05T07:19:07.377Z,1009.35
2018-02-05T07:19:48.152Z,1009.32
2018-02-05T07:20:28.696Z,1009.32
2018-02-05T07:21:09.234Z,1009.33
2018-02-05T07:21:49.759Z,1009.33
2018-02-05T07:22:31.310Z,1009.37
2018-02-05T07:23:10.934Z,1009.38
2018-02-05T07:23:51.525Z,1009.41
2018-02-05T07:24:32.097Z,1009.42
2018-02-05T07:25:12.624Z,1009.46
2018-02-05T07:25:53.168Z,1009.44
2018-02-05T07:26:33.702Z,1009.44
2018-02-05T07:27:14.283Z,1009.47
2018-02-05T07:27:54.787Z,1009.49
2018-02-05T07:28:35.430Z,1009.49
2018-02-05T07:29:15.969Z,1009.46
2018-02-05T07:29:56.480Z,1009.56
2018-02-05T07:30:37.019Z,1009.51
2018-02-05T07:31:17.549Z,1009.5
2018-02-05T07:31:58.138Z,1009.54
2018-02-05T07:32:38.618Z,1009.52
2018-02-05T07:33:19.149Z,1009.5
2018-02-05T07:33:59.693Z,1009.5
2018-02-05T07:34:40.256Z,1009.55
2018-02-05T07:35:20.762Z,1009.56
2018-02-05T07:36:01.338Z,1009.65
2018-02-05T07:36:42.116Z,1009.6
2018-02-05T07:37:22.652Z,1009.65
2018-02-05T07:38:03.200Z,1009.56
2018-02-05T07:38:43.784Z,1009.6
2018-02-05T07:39:24.330Z,1009.59
2018-02-05T07:40:04.881Z,1009.61
2018-02-05T07:40:45.431Z,1009.52
2018-02-05T07:41:25.948Z,1009.55
2018-02-05T07:42:06.473Z,1009.53
2018-02-05T07:42:47.063Z,1009.56
2018-02-05T07:43:27.637Z,1009.54
2018-02-05T07:44:08.163Z,1009.52
2018-02-05T07:44:48.762Z,1009.53
2018-02-05T07:45:29.179Z,1009.53
2018-02-05T07:46:09.745Z,1009.48
2018-02-05T07:46:50.486Z,1009.52
2018-02-05T07:47:30.976Z,1009.47
2018-02-05T07:48:11.641Z,1009.54
2018-02-05T07:48:52.206Z,1009.52
2018-02-05T07:49:32.680Z,1009.49
2018-02-05T07:50:13.224Z,1009.42
2018-02-05T07:50:53.747Z,1009.46
2018-02-05T07:51:34.362Z,1009.44
2018-02-05T07:52:14.880Z,1009.49
2018-02-05T07:52:55.391Z,1009.39
2018-02-05T07:53:35.962Z,1009.47
2018-02-05T07:54:16.465Z,1009.42
2018-02-05T07:54:56.998Z,1009.46
2018-02-05T07:55:37.532Z,1009.41
2018-02-05T07:56:18.144Z,1009.44
2018-02-05T07:56:58.658Z,1009.5
2018-02-05T07:57:39.424Z,1009.36
2018-02-05T07:58:19.793Z,1009.46
2018-02-05T07:59:00.292Z,1009.42
2018-02-05T07:59:40.804Z,1009.48
2018-02-05T08:00:21.285Z,1009.47
2018-02-05T08:01:01.854Z,1009.44
2018-02-05T08:01:42.374Z,1009.44
2018-02-05T08:02:22.926Z,1009.44
2018-02-05T08:03:03.533Z,1009.41
2018-02-05T08:03:44.024Z,1009.52
2018-02-05T08:04:24.586Z,1009.49
2018-02-05T08:05:05.233Z,1009.48
2018-02-05T08:05:45.808Z,1009.46
2018-02-05T08:06:26.300Z,1009.48
2018-02-05T08:07:06.817Z,1009.53
2018-02-05T08:07:47.362Z,1009.52
2018-02-05T08:08:27.900Z,1009.59
2018-02-05T08:09:08.407Z,1009.51
2018-02-05T08:09:48.963Z,1009.51
2018-02-05T08:10:29.530Z,1009.48
2018-02-05T08:11:10.073Z,1009.44
2018-02-05T08:11:50.536Z,1009.45
2018-02-05T08:12:31.146Z,1009.5
2018-02-05T08:13:11.708Z,1009.47
2018-02-05T08:13:52.227Z,1009.46
2018-02-05T08:14:32.800Z,1009.43
2018-02-05T08:15:13.357Z,1009.52
2018-02-05T08:15:53.853Z,1009.48
2018-02-05T08:16:34.384Z,1009.48
2018-02-05T08:17:14.884Z,1009.42
2018-02-05T08:17:55.599Z,1009.44
2018-02-05T08:18:36.111Z,1009.47